createdAt,value
2018-12-23T00:01:39.542Z,1.53
2018-12-23T00:04:08.325Z,3.73
2018-12-23T00:06:37.811Z,3.63
2018-12-23T00:09:06.858Z,3.20
2018-12-23T00:11:35.963Z,2.70
2018-12-23T00:14:04.760Z,3.20
2018-12-23T00:16:33.544Z,2.60
2018-12-23T00:19:02.338Z,3.83
2018-12-23T00:21:31.113Z,4.17
2018-12-23T00:23:59.902Z,3.83
2018-12-23T00:26:28.689Z,2.80
2018-12-23T00:28:57.478Z,3.07
2018-12-23T00:31:26.271Z,2.97
2018-12-23T00:33:55.080Z,2.73
2018-12-23T00:36:24.265Z,4.10
2018-12-23T00:38:53.054Z,3.93
2018-12-23T00:41:22.181Z,3.83
2018-12-23T00:43:50.981Z,2.10
2018-12-23T00:46:19.773Z,4.87
2018-12-23T00:48:48.572Z,2.40
2018-12-23T00:51:17.591Z,5.43
2018-12-23T00:53:46.723Z,3.07
2018-12-23T00:56:15.512Z,4.83
2018-12-23T00:58:44.366Z,2.43
2018-12-23T01:01:13.154Z,3.23
2018-12-23T01:03:42.210Z,4.53
2018-12-23T01:06:11.623Z,5.30
2018-12-23T01:08:40.413Z,2.50
2018-12-23T01:11:09.198Z,2.00
2018-12-23T01:13:37.976Z,6.13
2018-12-23T01:16:06.774Z,2.57
2018-12-23T01:18:35.595Z,6.60
2018-12-23T01:21:04.799Z,4.37
2018-12-23T01:23:33.542Z,6.73
2018-12-23T01:26:02.325Z,3.33
2018-12-23T01:28:31.121Z,6.37
2018-12-23T01:30:59.926Z,4.17
2018-12-23T01:33:29.120Z,6.73
2018-12-23T01:35:58.147Z,2.50
2018-12-23T01:38:26.932Z,5.13
2018-12-23T01:40:55.741Z,4.47
2018-12-23T01:43:24.537Z,3.97
2018-12-23T01:45:53.317Z,4.90
2018-12-23T01:48:22.459Z,3.97
2018-12-23T01:50:51.665Z,6.50
2018-12-23T01:53:20.457Z,7.77
2018-12-23T01:55:49.649Z,4.80
2018-12-23T01:58:18.434Z,10.13
2018-12-23T02:00:47.525Z,9.13
2018-12-23T02:03:16.482Z,6.40
2018-12-23T02:05:46.183Z,10.60
2018-12-23T02:08:15.400Z,6.90
2018-12-23T02:10:44.833Z,6.27
2018-12-23T02:13:13.625Z,6.00
2018-12-23T02:15:42.666Z,7.00
2018-12-23T02:18:11.692Z,4.37
2018-12-23T02:20:40.476Z,5.97
2018-12-23T02:23:09.674Z,7.20
2018-12-23T02:25:38.756Z,5.60
2018-12-23T02:28:07.993Z,6.20
2018-12-23T02:30:36.808Z,7.20
2018-12-23T02:33:05.861Z,5.27
2018-12-23T02:35:34.954Z,9.57
2018-12-23T02:38:04.410Z,5.10
2018-12-23T02:40:33.859Z,7.33
2018-12-23T02:43:02.654Z,7.80
2018-12-23T02:45:31.486Z,5.47
2018-12-23T02:48:00.299Z,7.23
2018-12-23T02:50:29.337Z,5.60
2018-12-23T02:52:58.145Z,6.47
2018-12-23T02:55:26.961Z,4.30
2018-12-23T02:57:55.819Z,7.23
2018-12-23T03:00:24.655Z,7.57
2018-12-23T03:02:53.523Z,10.03
2018-12-23T03:05:22.410Z,7.13
2018-12-23T03:07:51.245Z,6.87
2018-12-23T03:10:20.086Z,6.63
2018-12-23T03:12:48.999Z,5.93
2018-12-23T03:15:18.179Z,7.87
2018-12-23T03:17:47.065Z,3.43
2018-12-23T03:20:16.260Z,11.57
2018-12-23T03:22:45.170Z,5.53
2018-12-23T03:25:14.046Z,9.43
2018-12-23T03:27:42.944Z,6.03
2018-12-23T03:30:11.856Z,9.43
2018-12-23T03:32:41.143Z,11.50
2018-12-23T03:35:10.450Z,8.10
2018-12-23T03:37:39.345Z,10.03
2018-12-23T03:40:08.225Z,10.60
2018-12-23T03:42:37.331Z,7.73
2018-12-23T03:45:06.676Z,7.43
2018-12-23T03:47:35.510Z,9.43
2018-12-23T03:50:05.784Z,14.57
2018-12-23T03:52:34.644Z,11.43
2018-12-23T03:55:03.751Z,9.47
2018-12-23T03:57:32.613Z,9.53
2018-12-23T04:00:01.521Z,8.47
2018-12-23T04:02:30.592Z,9.80
2018-12-23T04:04:59.843Z,10.13
2018-12-23T04:07:28.703Z,8.27
2018-12-23T04:09:57.587Z,5.90
2018-12-23T04:12:26.487Z,9.43
2018-12-23T04:14:55.584Z,10.30
2018-12-23T04:17:24.875Z,8.90
2018-12-23T04:19:53.708Z,8.27
2018-12-23T04:22:22.563Z,8.13
2018-12-23T04:24:51.447Z,7.43
2018-12-23T04:27:20.287Z,9.77
2018-12-23T04:29:49.555Z,5.03
2018-12-23T04:32:18.454Z,10.20
2018-12-23T04:34:47.338Z,7.17
2018-12-23T04:37:16.224Z,9.67
2018-12-23T04:39:45.122Z,7.60
2018-12-23T04:42:14.086Z,5.47
2018-12-23T04:44:43.060Z,7.57
2018-12-23T04:47:12.298Z,10.43
2018-12-23T04:49:41.191Z,10.87
2018-12-23T04:52:10.098Z,6.63
2018-12-23T04:54:38.927Z,8.27
2018-12-23T04:57:07.770Z,5.73
2018-12-23T04:59:36.646Z,7.70
2018-12-23T05:02:05.563Z,7.60
2018-12-23T05:04:34.443Z,8.70
2018-12-23T05:07:03.351Z,9.80
2018-12-23T05:09:32.222Z,5.37
2018-12-23T05:12:01.135Z,9.00
2018-12-23T05:14:29.976Z,11.57
2018-12-23T05:16:58.818Z,7.27
2018-12-23T05:19:27.688Z,7.93
2018-12-23T05:21:56.579Z,8.27
2018-12-23T05:24:25.475Z,9.60
2018-12-23T05:26:54.779Z,5.37
2018-12-23T05:29:23.632Z,8.67
2018-12-23T05:31:52.496Z,8.53
2018-12-23T05:34:21.339Z,7.17
2018-12-23T05:36:52.551Z,7.77
2018-12-23T05:39:21.559Z,12.47
2018-12-23T05:41:50.811Z,9.70
2018-12-23T05:44:19.635Z,6.50
2018-12-23T05:46:48.489Z,7.13
2018-12-23T05:49:17.307Z,7.47
2018-12-23T05:51:46.159Z,5.90
2018-12-23T05:54:15.047Z,8.57
2018-12-23T05:56:43.880Z,6.63
2018-12-23T05:59:12.731Z,7.07
2018-12-23T06:01:41.615Z,6.33
2018-12-23T06:04:10.514Z,5.63
2018-12-23T06:06:39.851Z,6.80
2018-12-23T06:09:08.844Z,9.23
2018-12-23T06:11:37.686Z,5.33
2018-12-23T06:14:06.511Z,7.30
2018-12-23T06:16:35.350Z,9.83
2018-12-23T06:19:04.498Z,8.63
2018-12-23T06:21:33.385Z,10.67
2018-12-23T06:24:02.262Z,8.37
2018-12-23T06:26:31.150Z,9.10
2018-12-23T06:29:00.073Z,8.57
2018-12-23T06:31:28.915Z,6.60
2018-12-23T06:33:57.745Z,7.03
2018-12-23T06:36:26.624Z,8.53
2018-12-23T06:38:55.507Z,10.90
2018-12-23T06:41:24.334Z,8.03
2018-12-23T06:43:53.577Z,10.37
2018-12-23T06:46:22.407Z,6.73
2018-12-23T06:48:51.238Z,10.70
2018-12-23T06:51:20.084Z,8.33
2018-12-23T06:53:48.917Z,10.97
2018-12-23T06:56:18.009Z,16.73
2018-12-23T06:58:47.486Z,9.90
2018-12-23T07:01:16.375Z,11.37
2018-12-23T07:03:45.242Z,9.00
2018-12-23T07:06:14.563Z,14.40
2018-12-23T07:08:43.396Z,13.73
2018-12-23T07:11:12.237Z,9.13
2018-12-23T07:13:41.114Z,8.27
2018-12-23T07:16:09.958Z,12.17
2018-12-23T07:18:38.809Z,14.00
2018-12-23T07:21:07.705Z,10.63
2018-12-23T07:23:36.943Z,10.67
2018-12-23T07:26:06.115Z,12.23
2018-12-23T07:28:34.988Z,9.50
2018-12-23T07:31:03.839Z,10.77
2018-12-23T07:33:33.071Z,12.47
2018-12-23T07:36:02.251Z,10.67
2018-12-23T07:38:31.084Z,8.43
2018-12-23T07:41:00.256Z,10.40
2018-12-23T07:43:29.161Z,6.00
2018-12-23T07:45:58.000Z,9.57
2018-12-23T07:48:26.851Z,8.60
2018-12-23T07:50:55.733Z,11.87
2018-12-23T07:53:24.623Z,8.27
2018-12-23T07:55:53.523Z,7.00
2018-12-23T07:58:22.406Z,10.67
2018-12-23T08:00:51.716Z,10.40
2018-12-23T08:03:20.575Z,12.30
2018-12-23T08:05:49.419Z,8.03
2018-12-23T08:08:18.279Z,5.33
2018-12-23T08:10:47.191Z,10.10
2018-12-23T08:13:16.160Z,6.97
2018-12-23T08:15:44.972Z,9.13
2018-12-23T08:18:13.857Z,7.33
2018-12-23T08:20:42.678Z,10.57
2018-12-23T08:23:11.736Z,8.93
2018-12-23T08:25:41.095Z,9.53
2018-12-23T08:28:09.938Z,9.63
2018-12-23T08:30:38.923Z,6.53
2018-12-23T08:33:07.821Z,6.50
2018-12-23T08:35:36.927Z,8.20
2018-12-23T08:38:05.799Z,6.80
2018-12-23T08:40:34.659Z,9.77
2018-12-23T08:43:03.502Z,7.67
2018-12-23T08:45:32.331Z,6.07
2018-12-23T08:48:01.178Z,7.07
2018-12-23T08:50:30.079Z,8.40
2018-12-23T08:52:58.900Z,5.07
2018-12-23T08:55:27.751Z,7.60
2018-12-23T08:57:56.589Z,9.23
2018-12-23T09:00:25.851Z,6.90
2018-12-23T09:02:54.681Z,6.17
2018-12-23T09:05:24.189Z,10.23
2018-12-23T09:07:53.335Z,5.90
2018-12-23T09:10:22.409Z,7.37
2018-12-23T09:12:51.578Z,8.37
2018-12-23T09:15:20.773Z,6.43
2018-12-23T09:17:49.566Z,8.23
2018-12-23T09:20:18.454Z,8.97
2018-12-23T09:22:47.272Z,7.33
2018-12-23T09:25:16.110Z,10.30
2018-12-23T09:27:45.017Z,5.70
2018-12-23T09:30:13.972Z,4.97
2018-12-23T09:32:42.798Z,7.63
2018-12-23T09:35:11.929Z,6.60
2018-12-23T09:38:35.410Z,8.13
2018-12-23T09:41:05.247Z,8.43
2018-12-23T09:43:54.349Z,8.47
2018-12-23T09:46:24.183Z,5.87
2018-12-23T09:48:54.163Z,6.23
2018-12-23T09:51:24.019Z,8.13
2018-12-23T09:54:13.099Z,5.80
2018-12-23T09:56:42.999Z,7.07
2018-12-23T09:59:31.939Z,4.63
2018-12-23T10:02:01.804Z,4.63
2018-12-23T10:04:51.144Z,6.03
2018-12-23T10:07:21.087Z,7.30
2018-12-23T10:09:50.942Z,6.97
2018-12-23T10:12:39.741Z,8.30
2018-12-23T10:15:09.679Z,4.33
2018-12-23T10:17:39.558Z,5.10
2018-12-23T10:20:28.697Z,6.03
2018-12-23T10:22:58.565Z,6.03
2018-12-23T10:25:28.449Z,9.93
2018-12-23T10:27:58.309Z,5.10
2018-12-23T10:30:47.093Z,7.10
2018-12-23T10:33:36.148Z,5.10
2018-12-23T10:36:25.191Z,9.27
2018-12-23T10:39:14.286Z,7.37
2018-12-23T10:41:44.125Z,5.60
2018-12-23T10:44:32.942Z,7.17
2018-12-23T10:47:21.980Z,6.47
2018-12-23T10:49:51.799Z,9.93
2018-12-23T10:52:21.724Z,7.97
2018-12-23T10:54:51.592Z,6.30
2018-12-23T10:57:21.419Z,8.60
2018-12-23T10:59:51.246Z,9.70
2018-12-23T11:02:40.307Z,6.63
2018-12-23T11:05:10.153Z,10.20
2018-12-23T11:07:40.020Z,11.13
2018-12-23T11:10:09.856Z,8.10
2018-12-23T11:12:58.913Z,6.77
2018-12-23T11:15:47.867Z,9.77
2018-12-23T11:18:37.264Z,8.43
2018-12-23T11:21:26.338Z,8.10
2018-12-23T11:23:56.204Z,13.63
2018-12-23T11:26:45.229Z,9.80
2018-12-23T11:29:34.320Z,10.03
2018-12-23T11:32:04.189Z,11.83
2018-12-23T11:34:34.111Z,9.33
2018-12-23T11:37:23.160Z,6.93
2018-12-23T11:42:43.580Z,7.63
2018-12-23T11:45:13.522Z,11.13
2018-12-23T11:48:02.647Z,8.67
2018-12-23T11:50:51.743Z,8.07
2018-12-23T11:53:21.624Z,9.00
2018-12-23T11:56:10.672Z,9.87
2018-12-23T11:58:40.535Z,9.37
2018-12-23T12:01:10.352Z,8.57
2018-12-23T12:03:40.214Z,6.47
2018-12-23T12:06:29.161Z,13.70
2018-12-23T12:09:06.786Z,14.03
2018-12-23T12:11:50.978Z,12.00
2018-12-23T12:14:21.246Z,10.13
2018-12-23T12:17:08.145Z,11.67
2018-12-23T12:19:38.017Z,8.20
2018-12-23T12:22:07.857Z,11.80
2018-12-23T12:27:12.742Z,11.77
2018-12-23T12:32:39.464Z,9.97
2018-12-23T12:35:09.298Z,9.13
2018-12-23T12:37:39.168Z,9.30
2018-12-23T12:40:08.984Z,5.93
2018-12-23T12:42:38.832Z,9.90
2018-12-23T12:45:08.770Z,9.63
2018-12-23T12:47:38.635Z,11.13
2018-12-23T12:50:08.524Z,10.67
2018-12-23T12:52:57.626Z,9.67
2018-12-23T12:55:27.480Z,8.13
2018-12-23T12:58:16.534Z,11.37
2018-12-23T13:00:46.495Z,14.13
2018-12-23T13:03:35.319Z,11.37
2018-12-23T13:06:24.380Z,9.50
2018-12-23T13:09:13.457Z,7.47
2018-12-23T13:12:02.549Z,11.30
2018-12-23T13:14:32.402Z,12.80
2018-12-23T13:17:21.473Z,12.50
2018-12-23T13:20:10.487Z,10.10
2018-12-23T13:22:40.340Z,9.33
2018-12-23T13:25:10.197Z,7.50
2018-12-23T13:27:59.261Z,11.50
2018-12-23T13:30:29.253Z,7.60
2018-12-23T13:32:59.104Z,7.97
2018-12-23T13:35:48.216Z,10.03
2018-12-23T13:38:18.050Z,11.50
2018-12-23T13:41:09.447Z,14.30
2018-12-23T13:44:02.749Z,16.43
2018-12-23T13:47:10.905Z,10.77
2018-12-23T13:50:04.299Z,12.80
2018-12-23T13:53:12.391Z,15.13
2018-12-23T13:56:20.549Z,16.80
2018-12-23T13:59:28.683Z,20.30
2018-12-23T14:02:36.746Z,15.83
2018-12-23T14:05:44.846Z,14.97
2018-12-23T14:08:52.944Z,14.77
2018-12-23T14:12:01.029Z,14.77
2018-12-23T14:14:50.019Z,11.37
2018-12-23T14:17:20.280Z,16.47
2018-12-23T14:19:51.896Z,15.03
2018-12-23T14:22:21.834Z,11.73
2018-12-23T14:24:51.680Z,12.97
2018-12-23T14:27:40.773Z,18.77
2018-12-23T14:30:29.855Z,14.93
2018-12-23T14:32:59.708Z,16.70
2018-12-23T14:35:48.779Z,10.67
2018-12-23T14:38:37.862Z,13.73
2018-12-23T14:41:07.719Z,12.00
2018-12-23T14:43:37.560Z,11.90
2018-12-23T14:46:26.614Z,11.57
2018-12-23T14:48:56.506Z,11.03
2018-12-23T14:51:26.374Z,13.63
2018-12-23T14:53:56.245Z,11.93
2018-12-23T14:56:26.204Z,6.60
2018-12-23T14:59:15.281Z,10.27
2018-12-23T15:01:45.354Z,7.37
2018-12-23T15:04:15.261Z,5.07
2018-12-23T15:06:45.090Z,4.77
2018-12-23T15:09:14.946Z,4.97
2018-12-23T15:11:44.851Z,5.57
2018-12-23T15:14:14.722Z,5.00
2018-12-23T15:16:44.577Z,4.03
2018-12-23T15:19:14.984Z,4.33
2018-12-23T15:21:45.927Z,3.67
2018-12-23T15:24:15.990Z,4.47
2018-12-23T15:26:45.924Z,3.50
2018-12-23T15:29:15.774Z,3.13
2018-12-23T15:31:45.648Z,4.47
2018-12-23T15:34:15.476Z,4.23
2018-12-23T15:36:45.331Z,5.90
2018-12-23T15:39:15.291Z,6.63
2018-12-23T15:41:45.328Z,8.33
2018-12-23T15:44:15.230Z,6.97
2018-12-23T15:46:45.122Z,4.93
2018-12-23T15:49:14.958Z,7.13
2018-12-23T15:51:44.837Z,5.43
2018-12-23T15:54:14.779Z,5.53
2018-12-23T15:56:44.645Z,6.13
2018-12-23T15:59:14.468Z,8.77
2018-12-23T16:01:44.316Z,6.20
2018-12-23T16:04:14.158Z,5.50
2018-12-23T16:06:44.042Z,9.40
2018-12-23T16:09:14.357Z,8.30
2018-12-23T16:11:44.706Z,7.47
2018-12-23T16:14:14.758Z,7.77
2018-12-23T16:16:44.628Z,5.63
2018-12-23T16:19:14.608Z,6.13
2018-12-23T16:21:44.457Z,5.50
2018-12-23T16:24:15.122Z,8.53
2018-12-23T16:26:45.110Z,8.73
2018-12-23T16:29:14.999Z,9.90
2018-12-23T16:31:44.995Z,9.63
2018-12-23T16:34:15.085Z,10.77
2018-12-23T16:36:44.985Z,9.93
2018-12-23T16:39:15.116Z,7.83
2018-12-23T16:41:44.947Z,7.37
2018-12-23T16:44:14.855Z,6.67
2018-12-23T16:46:44.673Z,8.83
2018-12-23T16:49:14.515Z,10.47
2018-12-23T16:51:44.654Z,10.20
2018-12-23T16:54:14.590Z,10.03
2018-12-23T16:56:44.507Z,12.53
2018-12-23T16:59:14.439Z,6.97
2018-12-23T17:01:44.354Z,12.53
2018-12-23T17:04:14.316Z,11.07
2018-12-23T17:06:44.222Z,9.47
2018-12-23T17:09:14.106Z,8.77
2018-12-23T17:11:43.955Z,10.20
2018-12-23T17:14:13.867Z,10.80
2018-12-23T17:16:43.736Z,11.63
2018-12-23T17:19:16.349Z,17.97
2018-12-23T17:21:46.311Z,11.50
2018-12-23T17:24:16.271Z,14.47
2018-12-23T17:26:46.255Z,17.17
2018-12-23T17:29:16.160Z,10.80
2018-12-23T17:31:45.976Z,14.67
2018-12-23T17:34:16.553Z,16.80
2018-12-23T17:36:46.728Z,15.53
2018-12-23T17:39:16.564Z,13.03
2018-12-23T17:41:46.482Z,18.70
2018-12-23T17:44:16.514Z,13.03
2018-12-23T17:46:46.366Z,13.77
2018-12-23T17:49:16.681Z,13.90
2018-12-23T17:51:46.706Z,17.67
2018-12-23T17:54:16.665Z,16.80
2018-12-23T17:56:46.636Z,44.70
2018-12-23T17:59:16.547Z,17.13
2018-12-23T18:01:46.386Z,21.90
2018-12-23T18:04:16.299Z,29.17
2018-12-23T18:06:46.291Z,22.00
2018-12-23T18:09:16.111Z,16.63
2018-12-23T18:11:46.156Z,48.20
2018-12-23T18:14:15.989Z,34.80
2018-12-23T18:16:46.032Z,23.50
2018-12-23T18:19:15.965Z,17.77
2018-12-23T18:21:45.885Z,20.77
2018-12-23T18:24:15.768Z,25.77
2018-12-23T18:26:45.668Z,23.30
2018-12-23T18:29:15.779Z,26.07
2018-12-23T18:31:45.722Z,22.80
2018-12-23T18:34:15.596Z,21.93
2018-12-23T18:36:46.439Z,18.13
2018-12-23T18:39:16.786Z,18.37
2018-12-23T18:41:46.763Z,17.73
2018-12-23T18:44:16.777Z,17.67
2018-12-23T18:46:46.733Z,17.93
2018-12-23T18:49:16.782Z,24.10
2018-12-23T18:51:46.909Z,18.40
2018-12-23T18:54:17.037Z,18.77
2018-12-23T18:56:48.936Z,19.50
2018-12-23T18:59:20.806Z,18.53
2018-12-23T19:01:58.087Z,18.30
2018-12-23T19:04:27.952Z,17.23
2018-12-23T19:06:58.019Z,23.30
2018-12-23T19:09:55.725Z,23.90
2018-12-23T19:13:02.556Z,20.53
2018-12-23T19:16:00.048Z,23.47
2018-12-23T19:19:14.393Z,17.87
2018-12-23T19:22:28.726Z,15.27
2018-12-23T19:25:27.849Z,21.63
2018-12-23T19:28:24.107Z,17.83
2018-12-23T19:31:46.520Z,19.37
2018-12-23T19:34:59.154Z,16.97
2018-12-23T19:38:12.397Z,13.27
2018-12-23T19:41:22.330Z,13.10
2018-12-23T19:44:45.302Z,14.13
2018-12-23T19:47:45.616Z,11.03
2018-12-23T19:50:47.889Z,11.10
2018-12-23T19:53:55.925Z,9.97
2018-12-23T19:57:01.255Z,6.27
2018-12-23T19:59:57.454Z,5.10
2018-12-23T20:03:04.073Z,4.90
2018-12-23T20:06:30.738Z,4.87
2018-12-23T20:09:33.197Z,4.53
2018-12-23T20:12:43.354Z,4.40
2018-12-23T20:16:06.407Z,4.00
2018-12-23T20:19:25.633Z,3.60
2018-12-23T20:22:21.479Z,4.43
2018-12-23T20:25:14.255Z,3.97
2018-12-23T20:28:29.746Z,4.63
2018-12-23T20:31:29.554Z,3.70
2018-12-23T20:34:53.926Z,4.30
2018-12-23T20:37:52.540Z,3.20
2018-12-23T20:41:07.375Z,3.67
2018-12-23T20:43:51.581Z,3.60
2018-12-23T20:46:58.245Z,4.47
2018-12-23T20:50:15.966Z,3.67
2018-12-23T20:53:08.126Z,3.50
2018-12-23T20:56:03.936Z,3.20
2018-12-23T20:58:59.641Z,3.73
2018-12-23T21:02:21.967Z,4.00
2018-12-23T21:05:29.066Z,3.80
2018-12-23T21:08:20.977Z,3.30
2018-12-23T21:11:50.300Z,4.73
2018-12-23T21:14:58.070Z,3.13
2018-12-23T21:18:13.829Z,3.77
2018-12-23T21:21:21.987Z,4.03
2018-12-23T21:24:42.195Z,3.40
2018-12-23T21:28:04.727Z,4.27
2018-12-23T21:30:54.030Z,3.17
2018-12-23T21:33:53.466Z,2.77
2018-12-23T21:37:31.845Z,3.83
2018-12-23T21:40:25.215Z,3.60
2018-12-23T21:43:21.097Z,3.50
2018-12-23T21:46:17.821Z,3.07
2018-12-23T21:49:25.870Z,3.23
2018-12-23T21:52:39.704Z,4.50
2018-12-23T21:55:28.541Z,3.73
2018-12-23T21:58:36.593Z,3.97
2018-12-23T22:01:30.735Z,2.87
2018-12-23T22:04:29.603Z,3.17
2018-12-23T22:07:14.289Z,4.20
2018-12-23T22:10:22.348Z,3.07
2018-12-23T22:13:28.997Z,3.27
2018-12-23T22:16:18.043Z,3.50
2018-12-23T22:19:06.996Z,3.40
2018-12-23T22:21:36.834Z,3.17
2018-12-23T22:24:25.855Z,3.53
2018-12-23T22:26:55.679Z,2.90
2018-12-23T22:29:25.502Z,3.10
2018-12-23T22:31:55.300Z,2.60
2018-12-23T22:34:25.104Z,2.13
2018-12-23T22:36:54.915Z,2.30
2018-12-23T22:39:24.713Z,2.83
2018-12-23T22:41:54.531Z,3.23
2018-12-23T22:44:24.332Z,2.80
2018-12-23T22:47:13.293Z,2.60
2018-12-23T22:49:43.405Z,2.90
2018-12-23T22:52:13.222Z,3.27
2018-12-23T22:54:43.025Z,3.13
2018-12-23T22:57:12.840Z,4.10
2018-12-23T22:59:42.636Z,3.00
2018-12-23T23:04:47.493Z,3.03
2018-12-23T23:07:38.496Z,3.97
2018-12-23T23:10:27.525Z,6.50
2018-12-23T23:12:57.337Z,3.97
2018-12-23T23:15:27.140Z,3.30
2018-12-23T23:17:56.978Z,2.37
2018-12-23T23:20:26.763Z,3.50
2018-12-23T23:22:56.587Z,3.20
2018-12-23T23:25:26.387Z,3.40
2018-12-23T23:27:56.203Z,2.67
2018-12-23T23:30:26.021Z,2.80
2018-12-23T23:32:55.832Z,2.67
2018-12-23T23:35:25.642Z,3.33
2018-12-23T23:37:55.460Z,6.03
2018-12-23T23:40:25.268Z,2.83
2018-12-23T23:42:55.083Z,2.50
2018-12-23T23:45:24.878Z,5.40
2018-12-23T23:47:54.687Z,3.10
2018-12-23T23:50:24.479Z,2.70
2018-12-23T23:52:54.291Z,2.40
2018-12-23T23:55:24.092Z,5.77
2018-12-23T23:57:53.907Z,2.40
